Time;durP1;ratioP1;P1;durP2;ratioP2;P2;SDS_P1;SDS_P2;PMS_P1;PMS_P2;Temp;Humidity;BMP_temperature;BMP_pressure;BME280_temperature;BME280_humidity;BME280_pressure;Samples;Min_cycle;Max_cycle;Signal;HPM_P1;HPM_P2
2021/03/31 00:01:55;;;;;;;10.73;8.73;;;10.90;69.80;;;;;;5107414;28;20270;-67
2021/03/31 00:04:21;;;;;;;11.75;8.32;;;10.70;69.70;;;;;;5100728;28;20639;-65
2021/03/31 00:06:48;;;;;;;11.00;9.48;;;10.60;70.20;;;;;;5100000;28;20203;-65
2021/03/31 00:09:15;;;;;;;9.77;8.38;;;10.50;70.40;;;;;;5106529;28;20200;-65
2021/03/31 00:11:42;;;;;;;10.38;8.63;;;10.40;70.40;;;;;;5105368;28;20207;-65
2021/03/31 00:14:09;;;;;;;13.18;8.93;;;10.30;70.90;;;;;;5103764;28;20211;-65
2021/03/31 00:16:36;;;;;;;11.05;8.40;;;10.30;70.90;;;;;;5106319;28;20649;-65
2021/03/31 00:19:02;;;;;;;10.55;8.68;;;10.20;71.60;;;;;;5104750;28;20206;-66
2021/03/31 00:21:28;;;;;;;13.70;10.32;;;10.10;72.40;;;;;;5106955;28;20207;-66
2021/03/31 00:23:55;;;;;;;10.68;9.63;;;10.00;72.20;;;;;;5107812;28;20235;-65
2021/03/31 00:26:21;;;;;;;13.80;8.93;;;9.90;74.00;;;;;;5108295;28;20208;-65
2021/03/31 00:28:47;;;;;;;10.95;9.85;;;9.80;74.80;;;;;;5104421;28;20257;-66
2021/03/31 00:31:14;;;;;;;11.98;9.68;;;9.80;75.00;;;;;;5104473;28;20655;-65
2021/03/31 00:33:41;;;;;;;11.40;9.45;;;9.70;75.00;;;;;;5103827;28;20220;-65
2021/03/31 00:36:08;;;;;;;13.55;9.40;;;9.60;75.50;;;;;;5106158;28;20314;-65
2021/03/31 00:38:35;;;;;;;13.20;10.18;;;9.60;76.00;;;;;;5099287;28;20213;-65
2021/03/31 00:41:01;;;;;;;14.70;11.07;;;9.50;76.60;;;;;;5101390;28;20274;-65
2021/03/31 00:43:28;;;;;;;12.77;9.82;;;9.40;77.00;;;;;;5104787;28;20224;-65
2021/03/31 00:45:54;;;;;;;10.70;9.30;;;9.40;77.40;;;;;;5104102;28;20641;-65
2021/03/31 00:48:20;;;;;;;14.10;9.85;;;9.30;77.90;;;;;;5096702;28;20653;-65
2021/03/31 00:50:49;;;;;;;13.60;10.32;;;9.20;79.10;;;;;;5103468;28;20591;-66
2021/03/31 00:53:23;;;;;;;12.40;9.38;;;9.10;79.40;;;;;;5100281;28;20204;-65
2021/03/31 00:55:51;;;;;;;15.68;9.88;;;9.00;80.60;;;;;;5099504;28;20207;-65
2021/03/31 00:58:17;;;;;;;14.48;10.63;;;8.90;81.40;;;;;;5105965;28;20821;-65
2021/03/31 01:00:44;;;;;;;13.32;9.65;;;8.90;81.50;;;;;;5103246;28;20204;-65
2021/03/31 01:03:10;;;;;;;12.50;10.18;;;8.80;81.70;;;;;;5106242;28;20200;-65
2021/03/31 01:05:37;;;;;;;13.80;10.60;;;8.80;82.10;;;;;;5105640;27;20206;-65
2021/03/31 01:08:04;;;;;;;11.85;10.30;;;8.80;82.10;;;;;;5107291;28;20204;-65
2021/03/31 01:10:36;;;;;;;12.90;9.80;;;8.80;81.80;;;;;;5102987;28;20302;-65
2021/03/31 01:13:41;;;;;;;14.18;11.15;;;8.80;81.80;;;;;;5092529;28;20200;-65
2021/03/31 01:16:17;;;;;;;11.68;9.77;;;8.80;81.70;;;;;;5095475;28;20255;-65
2021/03/31 01:18:49;;;;;;;13.90;10.35;;;8.80;82.50;;;;;;5102355;28;20203;-65
2021/03/31 01:21:54;;;;;;;11.02;9.68;;;8.80;82.50;;;;;;5100196;28;20200;-65
2021/03/31 01:25:04;;;;;;;14.38;10.63;;;8.80;82.20;;;;;;5071437;28;20232;-65
2021/03/31 01:27:42;;;;;;;15.65;9.98;;;8.70;82.30;;;;;;5104355;28;20207;-65
2021/03/31 01:30:17;;;;;;;13.48;9.93;;;8.70;82.50;;;;;;5107018;28;20286;-66
2021/03/31 01:33:07;;;;;;;11.65;9.80;;;8.60;82.60;;;;;;5104821;28;20298;-66
2021/03/31 01:35:34;;;;;;;13.45;10.52;;;8.60;83.40;;;;;;5102188;28;20204;-65
2021/03/31 01:38:04;;;;;;;13.05;10.70;;;8.50;84.00;;;;;;5103750;28;20204;-66
2021/03/31 01:40:34;;;;;;;13.88;10.52;;;8.40;84.40;;;;;;5106521;28;20200;-65
2021/03/31 01:43:05;;;;;;;12.70;10.82;;;8.50;84.90;;;;;;5100100;28;20203;-66
2021/03/31 01:45:33;;;;;;;10.88;9.45;;;8.50;84.80;;;;;;5106670;28;20257;-65
2021/03/31 01:48:05;;;;;;;12.73;10.95;;;8.50;85.20;;;;;;5100832;28;20223;-65
2021/03/31 01:50:33;;;;;;;13.18;10.05;;;8.50;85.70;;;;;;5099284;28;20206;-65
2021/03/31 01:53:01;;;;;;;11.38;9.77;;;8.40;87.00;;;;;;5100341;28;20202;-65
2021/03/31 01:55:30;;;;;;;13.43;11.15;;;8.30;87.40;;;;;;5106065;28;20204;-65
2021/03/31 01:57:58;;;;;;;11.23;9.80;;;8.60;86.00;;;;;;5100223;28;20200;-65
2021/03/31 02:00:30;;;;;;;13.52;9.43;;;8.60;86.20;;;;;;5102865;28;20188;-65
2021/03/31 02:02:57;;;;;;;10.98;8.40;;;8.60;86.50;;;;;;5098005;28;20313;-65
2021/03/31 02:05:23;;;;;;;17.58;10.52;;;8.50;86.30;;;;;;5096103;28;20223;-66
2021/03/31 02:07:51;;;;;;;12.48;9.48;;;8.60;85.60;;;;;;5104439;28;20711;-66
2021/03/31 02:10:20;;;;;;;11.88;9.30;;;8.60;85.60;;;;;;5099086;28;20196;-65
2021/03/31 02:12:46;;;;;;;11.77;10.25;;;8.40;86.20;;;;;;5087763;28;20288;-65
2021/03/31 02:15:15;;;;;;;12.95;10.05;;;8.30;86.90;;;;;;5106483;28;20322;-66
2021/03/31 02:17:42;;;;;;;13.30;9.15;;;8.20;87.70;;;;;;5099054;28;20221;-65
2021/03/31 02:20:09;;;;;;;11.65;9.75;;;8.10;88.70;;;;;;5099100;28;20208;-65
2021/03/31 02:22:38;;;;;;;10.52;9.05;;;8.20;89.00;;;;;;5104192;28;20204;-66
2021/03/31 02:25:05;;;;;;;9.00;8.20;;;8.20;89.10;;;;;;5104077;28;20228;-65
2021/03/31 02:27:33;;;;;;;12.65;9.60;;;8.20;89.50;;;;;;5099917;27;20214;-65
2021/03/31 02:30:00;;;;;;;11.77;8.90;;;8.10;90.10;;;;;;5099823;28;20208;-65
2021/03/31 02:32:27;;;;;;;12.15;9.55;;;8.00;90.50;;;;;;5098488;28;20731;-65
2021/03/31 02:34:55;;;;;;;10.43;8.40;;;8.00;90.60;;;;;;5104084;28;20208;-65
2021/03/31 02:37:23;;;;;;;11.35;8.77;;;8.00;90.70;;;;;;5098456;28;20252;-65
2021/03/31 02:39:52;;;;;;;12.00;7.95;;;8.00;90.80;;;;;;5099500;28;20264;-65
2021/03/31 02:42:21;;;;;;;12.38;9.18;;;8.00;90.80;;;;;;5104038;28;20204;-65
2021/03/31 02:44:50;;;;;;;9.82;8.73;;;8.00;90.90;;;;;;5101842;28;20291;-65
2021/03/31 02:47:24;;;;;;;9.13;7.28;;;8.00;90.90;;;;;;5093745;28;20199;-65
2021/03/31 02:49:58;;;;;;;11.65;8.23;;;8.00;90.90;;;;;;5096358;28;20289;-65
2021/03/31 02:52:25;;;;;;;12.20;8.40;;;8.00;90.90;;;;;;5098424;28;20344;-66
2021/03/31 02:54:54;;;;;;;9.35;7.85;;;8.00;90.90;;;;;;5101267;28;20207;-65
2021/03/31 02:57:22;;;;;;;12.98;9.32;;;8.00;90.90;;;;;;5103433;28;20219;-67
2021/03/31 02:59:50;;;;;;;10.60;9.45;;;8.00;91.10;;;;;;5096295;28;20211;-67
2021/03/31 03:02:19;;;;;;;11.13;9.07;;;7.90;91.20;;;;;;5101115;28;20303;-67
2021/03/31 03:04:47;;;;;;;11.95;8.23;;;7.90;91.40;;;;;;5097161;28;20224;-66
2021/03/31 03:07:13;;;;;;;11.40;9.18;;;7.80;91.50;;;;;;5096641;28;20272;-67
2021/03/31 03:09:41;;;;;;;11.88;8.40;;;7.80;91.30;;;;;;5099985;28;20198;-67
2021/03/31 03:12:09;;;;;;;9.10;8.20;;;7.70;91.40;;;;;;5096969;28;20202;-67
2021/03/31 03:14:36;;;;;;;13.23;8.90;;;7.70;91.60;;;;;;5099243;28;20273;-67
2021/03/31 03:17:04;;;;;;;11.70;8.75;;;7.60;91.80;;;;;;5101859;28;20207;-67
2021/03/31 03:19:30;;;;;;;13.75;8.63;;;7.50;92.00;;;;;;5104409;28;20200;-67
2021/03/31 03:21:57;;;;;;;10.50;9.35;;;7.40;92.20;;;;;;5099325;28;20200;-67
2021/03/31 03:24:25;;;;;;;13.05;9.18;;;7.40;92.30;;;;;;5102024;28;20700;-67
2021/03/31 03:26:52;;;;;;;9.73;7.93;;;7.30;92.60;;;;;;5102392;28;20210;-67
2021/03/31 03:29:20;;;;;;;12.38;8.90;;;7.20;92.70;;;;;;5096578;28;20561;-66
2021/03/31 03:31:48;;;;;;;10.77;8.90;;;7.10;93.20;;;;;;5103553;28;20702;-66
2021/03/31 03:34:16;;;;;;;9.15;8.20;;;7.00;93.40;;;;;;5101827;28;20211;-67
2021/03/31 03:36:43;;;;;;;9.82;8.50;;;7.00;93.90;;;;;;5098543;28;20204;-67
2021/03/31 03:39:10;;;;;;;11.10;8.50;;;7.00;93.80;;;;;;5103891;28;20196;-67
2021/03/31 03:41:36;;;;;;;9.02;7.97;;;7.00;93.90;;;;;;5099157;28;20204;-67
2021/03/31 03:44:04;;;;;;;9.18;8.27;;;7.00;94.10;;;;;;5105380;28;20227;-66
2021/03/31 03:46:33;;;;;;;11.57;8.30;;;7.00;94.20;;;;;;5103489;28;20755;-67
2021/03/31 03:49:00;;;;;;;12.25;9.40;;;7.00;94.60;;;;;;5098193;28;20785;-67
2021/03/31 03:51:28;;;;;;;10.00;8.23;;;6.90;94.70;;;;;;5102106;28;20211;-67
2021/03/31 03:53:55;;;;;;;10.25;8.88;;;6.90;95.10;;;;;;5104853;28;20199;-66
2021/03/31 03:56:23;;;;;;;13.30;8.60;;;6.90;95.40;;;;;;5099504;28;20259;-67
2021/03/31 03:58:50;;;;;;;10.75;8.95;;;6.80;95.60;;;;;;5100973;28;20229;-67
2021/03/31 04:01:16;;;;;;;10.27;8.50;;;6.80;95.70;;;;;;5104771;28;20204;-67
2021/03/31 04:03:43;;;;;;;11.68;8.68;;;6.80;95.80;;;;;;5099105;28;20262;-67
2021/03/31 04:06:10;;;;;;;12.35;9.48;;;6.70;96.20;;;;;;5105727;28;20196;-67
2021/03/31 04:08:37;;;;;;;9.18;8.23;;;6.70;96.50;;;;;;5104760;28;20200;-67
2021/03/31 04:11:06;;;;;;;12.68;10.45;;;6.70;96.80;;;;;;5094168;28;20201;-66
2021/03/31 04:13:34;;;;;;;10.65;8.75;;;6.70;97.00;;;;;;5105641;28;20204;-67
2021/03/31 04:16:05;;;;;;;9.93;8.88;;;6.70;97.10;;;;;;5101313;28;20212;-67
2021/03/31 04:18:33;;;;;;;10.07;9.05;;;6.70;97.20;;;;;;5099469;28;20283;-67
2021/03/31 04:21:00;;;;;;;9.90;8.88;;;6.60;97.40;;;;;;5103889;28;20197;-67
2021/03/31 04:23:27;;;;;;;10.07;8.98;;;6.60;97.70;;;;;;5105009;28;20208;-67
2021/03/31 04:25:57;;;;;;;11.13;8.70;;;6.60;97.80;;;;;;5109901;28;20222;-67
2021/03/31 04:28:24;;;;;;;10.95;9.13;;;6.50;98.00;;;;;;5101991;28;20230;-67
2021/03/31 04:30:53;;;;;;;11.45;8.73;;;6.50;98.20;;;;;;5107792;28;20204;-67
2021/03/31 04:33:21;;;;;;;12.32;8.82;;;6.50;98.50;;;;;;5103347;28;20222;-67
2021/03/31 04:35:47;;;;;;;10.93;9.57;;;6.40;98.70;;;;;;5104553;28;20199;-67
2021/03/31 04:38:15;;;;;;;13.10;10.70;;;6.40;98.90;;;;;;5099785;28;20214;-67
2021/03/31 04:40:53;;;;;;;10.40;9.40;;;6.50;99.10;;;;;;5103988;28;20274;-67
2021/03/31 04:43:21;;;;;;;12.40;9.00;;;6.40;99.20;;;;;;5100817;28;20204;-67
2021/03/31 04:45:47;;;;;;;12.32;9.52;;;6.40;99.50;;;;;;5102656;28;20579;-67
2021/03/31 04:48:14;;;;;;;11.68;10.25;;;6.40;99.40;;;;;;5098855;28;20200;-67
2021/03/31 04:50:40;;;;;;;12.07;10.20;;;6.40;99.60;;;;;;5100028;28;20730;-67
2021/03/31 04:53:07;;;;;;;12.02;9.52;;;6.60;99.30;;;;;;5102962;28;20200;-67
2021/03/31 04:55:33;;;;;;;10.90;9.70;;;6.60;99.00;;;;;;5107409;28;20607;-67
2021/03/31 04:58:00;;;;;;;18.08;9.93;;;6.60;99.10;;;;;;5099766;28;20332;-67
2021/03/31 05:00:27;;;;;;;12.63;10.63;;;6.70;99.20;;;;;;5102867;28;20210;-66
2021/03/31 05:02:54;;;;;;;15.13;9.75;;;6.70;99.00;;;;;;5105279;28;20203;-66
2021/03/31 05:05:20;;;;;;;11.25;9.25;;;6.80;98.90;;;;;;5099551;28;20326;-66
2021/03/31 05:07:46;;;;;;;9.75;8.77;;;6.80;98.80;;;;;;5099652;28;20261;-66
2021/03/31 05:10:13;;;;;;;10.02;8.98;;;6.80;98.90;;;;;;5103276;28;20210;-67
2021/03/31 05:12:39;;;;;;;9.90;8.90;;;6.80;98.70;;;;;;5104874;28;20291;-67
2021/03/31 05:15:07;;;;;;;12.45;9.07;;;6.90;98.70;;;;;;5098681;28;20228;-67
2021/03/31 05:17:34;;;;;;;11.02;9.30;;;6.80;98.70;;;;;;5096525;28;20618;-67
2021/03/31 05:20:02;;;;;;;12.98;8.85;;;6.90;98.70;;;;;;5102311;28;20320;-66
2021/03/31 05:22:28;;;;;;;10.90;9.35;;;6.80;98.70;;;;;;5100347;28;20208;-67
2021/03/31 05:24:54;;;;;;;8.70;7.80;;;6.80;98.70;;;;;;5097152;28;20224;-67
2021/03/31 05:27:21;;;;;;;11.98;9.82;;;6.90;98.70;;;;;;5103243;28;20204;-67
2021/03/31 05:29:47;;;;;;;13.70;9.25;;;6.90;98.90;;;;;;5104810;28;20218;-66
2021/03/31 05:32:14;;;;;;;10.40;9.50;;;7.00;98.50;;;;;;5097626;28;20268;-67
2021/03/31 05:34:41;;;;;;;14.40;9.30;;;7.20;98.20;;;;;;5102312;28;20289;-68
2021/03/31 05:37:08;;;;;;;9.77;8.77;;;7.20;98.10;;;;;;5105926;28;20192;-67
2021/03/31 05:39:34;;;;;;;11.73;9.15;;;7.30;97.90;;;;;;5106370;28;20210;-67
2021/03/31 05:42:01;;;;;;;13.02;9.68;;;7.50;97.40;;;;;;5102270;28;20275;-68
2021/03/31 05:44:29;;;;;;;10.63;8.65;;;7.60;97.50;;;;;;5103727;28;20231;-68
2021/03/31 05:46:57;;;;;;;10.88;9.75;;;7.60;97.20;;;;;;5095087;28;20195;-68
2021/03/31 05:49:24;;;;;;;11.10;9.68;;;7.70;96.90;;;;;;5095231;28;21070;-67
2021/03/31 05:51:51;;;;;;;10.13;8.02;;;7.70;97.10;;;;;;5103327;28;20207;-68
2021/03/31 05:54:17;;;;;;;10.27;8.65;;;7.80;96.90;;;;;;5100586;28;20191;-67
2021/03/31 05:56:45;;;;;;;9.13;8.25;;;7.90;96.70;;;;;;5103852;28;20599;-68
2021/03/31 05:59:11;;;;;;;11.70;9.55;;;7.90;96.70;;;;;;5095683;28;20199;-68
2021/03/31 06:01:38;;;;;;;13.20;9.48;;;7.90;96.80;;;;;;5094343;28;20649;-68
2021/03/31 06:04:05;;;;;;;10.00;9.07;;;7.90;97.00;;;;;;5100347;28;20323;-68
2021/03/31 06:06:32;;;;;;;10.45;9.30;;;7.90;96.70;;;;;;5104570;28;20200;-67
2021/03/31 06:08:59;;;;;;;12.68;9.52;;;8.00;96.70;;;;;;5088431;28;20287;-68
2021/03/31 06:11:25;;;;;;;17.55;9.50;;;7.90;96.90;;;;;;5099637;28;20282;-67
2021/03/31 06:13:55;;;;;;;12.18;9.75;;;8.10;97.00;;;;;;5098285;28;20668;-67
2021/03/31 06:16:29;;;;;;;12.70;9.65;;;8.20;96.60;;;;;;5098952;28;20691;-67
2021/03/31 06:18:56;;;;;;;10.70;9.27;;;8.50;96.40;;;;;;5096818;28;20233;-67
2021/03/31 06:21:23;;;;;;;11.48;8.88;;;8.90;95.70;;;;;;5103148;28;20203;-67
2021/03/31 06:23:55;;;;;;;11.05;9.85;;;9.10;95.30;;;;;;5097592;28;20214;-67
2021/03/31 06:26:26;;;;;;;10.73;9.05;;;9.50;94.90;;;;;;5095393;28;20569;-68
2021/03/31 06:28:56;;;;;;;10.90;9.80;;;10.10;93.20;;;;;;5103938;28;20196;-67
2021/03/31 06:31:27;;;;;;;10.95;9.95;;;10.50;91.90;;;;;;5100241;28;20232;-67
2021/03/31 06:33:54;;;;;;;11.38;10.23;;;10.40;91.40;;;;;;5099509;28;20195;-68
2021/03/31 06:36:35;;;;;;;10.88;9.40;;;10.40;91.40;;;;;;5105917;28;20287;-67
2021/03/31 06:39:15;;;;;;;10.80;9.75;;;10.30;91.50;;;;;;5093073;28;20199;-67
2021/03/31 06:41:54;;;;;;;10.93;9.82;;;10.30;91.80;;;;;;5103548;28;20203;-68
2021/03/31 06:44:33;;;;;;;10.55;9.13;;;10.70;91.30;;;;;;5099314;28;20323;-68
2021/03/31 06:47:06;;;;;;;10.18;9.13;;;10.70;91.20;;;;;;5097248;28;20210;-67
2021/03/31 06:49:33;;;;;;;14.00;9.65;;;10.90;90.90;;;;;;5096755;28;20655;-68
2021/03/31 06:52:06;;;;;;;12.93;10.10;;;11.00;90.70;;;;;;5102630;28;20567;-68
2021/03/31 06:54:45;;;;;;;10.43;9.50;;;10.80;90.50;;;;;;5098729;28;20744;-67
2021/03/31 06:57:14;;;;;;;10.52;9.35;;;11.10;90.30;;;;;;5100818;28;20341;-68
2021/03/31 06:59:41;;;;;;;12.27;9.02;;;11.40;90.10;;;;;;5089542;28;20196;-67
2021/03/31 07:02:09;;;;;;;12.63;10.23;;;11.50;89.00;;;;;;5104765;28;20211;-68
2021/03/31 07:04:36;;;;;;;11.70;10.50;;;11.40;89.20;;;;;;5090886;28;20224;-67
2021/03/31 07:07:07;;;;;;;12.98;9.43;;;11.40;89.10;;;;;;5094882;28;20311;-67
2021/03/31 07:09:34;;;;;;;10.98;9.95;;;11.40;89.60;;;;;;5098011;28;20235;-67
2021/03/31 07:12:00;;;;;;;10.70;9.70;;;11.70;89.50;;;;;;5100002;28;20571;-68
2021/03/31 07:14:28;;;;;;;10.90;8.88;;;12.70;87.20;;;;;;5099599;28;20215;-68
2021/03/31 07:16:56;;;;;;;10.43;9.02;;;13.40;84.80;;;;;;5105330;28;20210;-68
2021/03/31 07:19:25;;;;;;;10.75;9.50;;;15.40;79.40;;;;;;5103575;28;20940;-69
2021/03/31 07:21:52;;;;;;;10.43;9.10;;;16.90;73.20;;;;;;5104931;28;21306;-68
2021/03/31 07:24:19;;;;;;;13.77;10.43;;;17.80;70.20;;;;;;5101296;28;20582;-68
2021/03/31 07:26:46;;;;;;;14.90;8.98;;;18.10;66.80;;;;;;5095177;28;20381;-67
2021/03/31 07:29:16;;;;;;;11.80;9.57;;;17.80;64.80;;;;;;5097117;28;20196;-68
2021/03/31 07:31:45;;;;;;;10.25;9.30;;;17.40;67.70;;;;;;5101909;28;20973;-67
2021/03/31 07:34:17;;;;;;;13.23;11.75;;;17.50;67.80;;;;;;5100594;28;20220;-68
2021/03/31 07:36:47;;;;;;;10.55;9.45;;;17.20;67.70;;;;;;5093094;28;20208;-68
2021/03/31 07:39:17;;;;;;;10.65;9.65;;;17.40;67.10;;;;;;5103567;28;20215;-68
2021/03/31 07:41:44;;;;;;;13.05;10.25;;;17.50;66.90;;;;;;5098070;28;20201;-68
2021/03/31 07:44:16;;;;;;;14.80;11.30;;;16.90;68.30;;;;;;5097249;28;20611;-68
2021/03/31 07:46:46;;;;;;;11.20;10.10;;;16.80;68.70;;;;;;5100459;28;20918;-68
2021/03/31 07:49:14;;;;;;;13.13;9.90;;;16.10;69.60;;;;;;5103841;28;20214;-68
2021/03/31 07:51:58;;;;;;;11.35;9.38;;;15.50;71.40;;;;;;5094201;28;20303;-68
2021/03/31 07:54:24;;;;;;;11.20;10.00;;;15.20;73.10;;;;;;5104006;28;20878;-68
2021/03/31 07:56:51;;;;;;;13.50;9.80;;;14.80;73.20;;;;;;5106155;28;20196;-68
2021/03/31 07:59:19;;;;;;;12.27;9.73;;;14.80;74.30;;;;;;5101692;28;20615;-68
2021/03/31 08:01:48;;;;;;;11.18;9.93;;;14.40;74.90;;;;;;5106472;28;20204;-67
2021/03/31 08:04:16;;;;;;;11.32;10.05;;;14.00;75.60;;;;;;5098063;28;20315;-67
2021/03/31 08:06:43;;;;;;;11.00;9.90;;;13.70;76.80;;;;;;5109025;28;20234;-68
2021/03/31 08:09:11;;;;;;;14.50;10.40;;;13.60;77.40;;;;;;5102541;28;20196;-67
2021/03/31 08:11:56;;;;;;;11.43;10.05;;;13.30;79.30;;;;;;5102260;28;20312;-67
2021/03/31 08:14:41;;;;;;;20.75;11.82;;;13.30;78.70;;;;;;5102603;28;20283;-68
2021/03/31 08:17:11;;;;;;;11.93;10.35;;;13.40;79.10;;;;;;5103358;28;20208;-67
2021/03/31 08:19:41;;;;;;;13.60;9.50;;;13.40;79.00;;;;;;5099359;28;20208;-67
2021/03/31 08:22:40;;;;;;;12.48;10.90;;;13.30;79.60;;;;;;5102564;28;20207;-67
2021/03/31 08:25:19;;;;;;;12.65;10.38;;;13.20;79.80;;;;;;5026363;28;20600;-67
2021/03/31 08:28:05;;;;;;;11.32;10.23;;;13.00;80.80;;;;;;5028615;28;20221;-68
2021/03/31 08:30:34;;;;;;;12.25;10.93;;;13.20;80.70;;;;;;5077003;28;20207;-67
2021/03/31 08:33:05;;;;;;;11.52;10.25;;;13.40;80.30;;;;;;5100711;28;20200;-68
2021/03/31 08:35:32;;;;;;;13.65;10.50;;;13.50;80.40;;;;;;5103948;28;20780;-68
2021/03/31 08:37:59;;;;;;;11.55;10.32;;;13.40;79.80;;;;;;5108343;28;20218;-68
2021/03/31 08:40:30;;;;;;;14.75;9.55;;;13.40;79.80;;;;;;5102313;27;20203;-67
2021/03/31 08:42:59;;;;;;;13.85;11.10;;;13.50;80.30;;;;;;5098770;28;20308;-68
2021/03/31 08:45:33;;;;;;;13.35;10.20;;;13.60;80.20;;;;;;5098113;28;20300;-68
2021/03/31 08:48:01;;;;;;;12.80;10.13;;;13.70;80.00;;;;;;5099884;28;20200;-67
2021/03/31 08:50:33;;;;;;;12.30;10.95;;;13.80;80.50;;;;;;5098315;28;20208;-67
2021/03/31 08:53:02;;;;;;;10.15;9.13;;;14.10;80.30;;;;;;5091022;28;20223;-68
2021/03/31 08:55:35;;;;;;;12.15;9.90;;;14.20;79.30;;;;;;5104175;28;20230;-68
2021/03/31 08:58:07;;;;;;;11.65;10.23;;;14.40;78.60;;;;;;5101634;28;20290;-68
2021/03/31 09:00:43;;;;;;;13.50;11.23;;;14.50;78.00;;;;;;5100826;28;20280;-68
2021/03/31 09:03:10;;;;;;;13.18;11.25;;;14.60;78.60;;;;;;5108475;28;20199;-68
2021/03/31 09:05:37;;;;;;;13.07;10.40;;;14.60;79.00;;;;;;5105403;28;20224;-68
2021/03/31 09:08:03;;;;;;;12.52;9.82;;;14.70;77.80;;;;;;5094240;28;20200;-68
2021/03/31 09:10:30;;;;;;;12.77;10.68;;;14.80;78.10;;;;;;5099958;28;20204;-68
2021/03/31 09:12:56;;;;;;;14.40;11.07;;;14.90;78.10;;;;;;5104883;28;20934;-67
2021/03/31 09:15:23;;;;;;;13.10;10.05;;;15.10;77.60;;;;;;5100459;28;20196;-68
2021/03/31 09:17:55;;;;;;;15.45;11.30;;;15.40;77.80;;;;;;5100259;28;20297;-67
2021/03/31 09:20:23;;;;;;;13.23;11.18;;;15.80;77.20;;;;;;5103376;28;20233;-68
2021/03/31 09:22:50;;;;;;;13.95;9.73;;;16.70;76.20;;;;;;5102339;28;20247;-68
2021/03/31 09:25:19;;;;;;;12.32;10.23;;;17.90;72.20;;;;;;5104360;28;20258;-68
2021/03/31 09:27:46;;;;;;;14.95;10.18;;;18.90;69.40;;;;;;5099707;28;20240;-69
2021/03/31 09:30:15;;;;;;;11.20;9.70;;;19.40;67.90;;;;;;5103447;28;20207;-68
2021/03/31 09:32:48;;;;;;;14.75;11.02;;;19.70;66.10;;;;;;5097066;28;20749;-68
2021/03/31 09:35:16;;;;;;;12.30;10.60;;;20.10;65.00;;;;;;5097362;28;20212;-68
2021/03/31 09:37:46;;;;;;;12.23;10.40;;;21.00;63.10;;;;;;5097616;28;20783;-68
2021/03/31 09:40:19;;;;;;;11.63;10.10;;;21.90;61.30;;;;;;5106706;28;20632;-68
2021/03/31 09:42:46;;;;;;;11.53;10.40;;;22.60;59.40;;;;;;5101753;28;21197;-69
2021/03/31 09:45:13;;;;;;;13.80;11.87;;;22.50;59.00;;;;;;5103978;28;20901;-68
2021/03/31 09:47:40;;;;;;;10.83;9.73;;;23.60;58.00;;;;;;5093070;28;20643;-69
2021/03/31 09:50:08;;;;;;;10.50;9.50;;;22.70;57.80;;;;;;5093493;28;20672;-68
2021/03/31 09:52:35;;;;;;;11.17;9.33;;;23.10;57.20;;;;;;5104304;28;21194;-68
2021/03/31 09:55:06;;;;;;;10.67;9.67;;;23.20;57.30;;;;;;5102129;28;20656;-68
2021/03/31 09:57:36;;;;;;;10.60;9.60;;;24.10;55.30;;;;;;5104126;28;20665;-66
2021/03/31 10:00:05;;;;;;;10.07;9.10;;;24.20;55.80;;;;;;5101418;28;20677;-66
2021/03/31 10:02:32;;;;;;;12.47;10.57;;;24.50;54.40;;;;;;5100044;28;20626;-66
2021/03/31 10:05:01;;;;;;;11.50;10.40;;;25.00;53.40;;;;;;5099528;28;20685;-66
2021/03/31 10:07:28;;;;;;;10.53;9.53;;;24.30;53.70;;;;;;5104515;28;20636;-66
2021/03/31 10:09:54;;;;;;;11.57;9.83;;;23.80;55.30;;;;;;5092911;28;20728;-66
2021/03/31 10:12:25;;;;;;;11.93;10.20;;;23.90;55.20;;;;;;5104968;28;20640;-68
2021/03/31 10:14:53;;;;;;;11.50;9.50;;;24.20;54.50;;;;;;5093765;28;20649;-66
2021/03/31 10:17:21;;;;;;;10.43;9.33;;;23.50;54.90;;;;;;5100111;28;20739;-65
2021/03/31 10:19:48;;;;;;;10.30;9.30;;;23.60;54.70;;;;;;5097524;28;21114;-66
2021/03/31 10:22:15;;;;;;;11.17;9.43;;;23.80;54.90;;;;;;5105045;28;20620;-66
2021/03/31 10:24:43;;;;;;;10.60;9.50;;;23.90;54.20;;;;;;5089283;28;20696;-68
2021/03/31 10:27:12;;;;;;;10.27;9.17;;;23.80;53.10;;;;;;5100609;28;20629;-68
2021/03/31 13:48:07;;;;;;;9.63;7.00;;;23.80;44.40;;;;;;5112655;27;20729;-68
2021/03/31 13:50:35;;;;;;;6.60;5.90;;;23.80;42.60;;;;;;5115067;27;20643;-68
2021/03/31 13:53:02;;;;;;;8.03;5.47;;;23.80;39.60;;;;;;5100063;28;20628;-70
2021/03/31 13:55:33;;;;;;;4.70;4.20;;;23.80;37.60;;;;;;5105901;28;20625;-70
2021/03/31 13:58:01;;;;;;;5.30;4.80;;;23.80;36.10;;;;;;5099101;28;20975;-70
2021/03/31 14:00:29;;;;;;;5.60;4.60;;;23.70;35.20;;;;;;5100280;28;20725;-70
2021/03/31 14:02:59;;;;;;;5.30;4.70;;;23.70;34.10;;;;;;5093832;28;20630;-70
2021/03/31 14:05:26;;;;;;;7.10;5.63;;;23.70;34.70;;;;;;5117350;28;20656;-70
2021/03/31 14:07:54;;;;;;;6.70;5.20;;;23.70;34.60;;;;;;5101413;28;20634;-70
2021/03/31 14:10:22;;;;;;;7.50;5.97;;;23.70;35.00;;;;;;5100932;28;21100;-70
2021/03/31 14:12:50;;;;;;;7.87;6.97;;;23.60;37.30;;;;;;5099859;28;20634;-70
2021/03/31 14:15:17;;;;;;;9.50;7.23;;;23.60;39.80;;;;;;5100949;28;20629;-69
2021/03/31 14:17:44;;;;;;;8.20;7.30;;;23.60;40.00;;;;;;5098539;28;20634;-70
2021/03/31 14:20:17;;;;;;;9.47;6.67;;;23.30;41.40;;;;;;5102637;28;20707;-70
2021/03/31 14:23:15;;;;;;;6.50;5.80;;;23.40;39.70;;;;;;5103123;28;20634;-70
2021/03/31 14:25:42;;;;;;;6.27;5.67;;;23.40;40.00;;;;;;5096753;28;20644;-70
2021/03/31 14:28:09;;;;;;;6.63;5.93;;;23.40;41.10;;;;;;5104227;28;21109;-69
2021/03/31 14:30:35;;;;;;;5.30;4.80;;;23.40;39.20;;;;;;5100245;28;20666;-69
2021/03/31 14:33:01;;;;;;;8.47;5.10;;;23.40;38.50;;;;;;5102752;28;20650;-70
2021/03/31 14:35:28;;;;;;;6.87;5.17;;;23.50;38.60;;;;;;5101135;28;20696;-67
2021/03/31 14:37:55;;;;;;;7.53;5.60;;;23.50;37.50;;;;;;5095866;28;21511;-71
2021/03/31 14:40:21;;;;;;;7.83;5.73;;;23.50;39.90;;;;;;5115750;28;20645;-71
2021/03/31 14:42:48;;;;;;;8.00;5.80;;;23.50;38.90;;;;;;5107920;28;20643;-69
2021/03/31 14:45:16;;;;;;;5.93;5.33;;;23.50;40.80;;;;;;5101145;28;20642;-67
2021/03/31 14:47:42;;;;;;;7.23;5.53;;;23.40;40.40;;;;;;5101886;28;20734;-68
2021/03/31 14:50:10;;;;;;;7.80;5.77;;;23.50;38.70;;;;;;5094438;28;20642;-69
2021/03/31 14:56:04;;;;;;;6.40;5.90;;;23.40;42.60;;;;;;5099676;28;20620;-67
2021/03/31 15:01:08;;;;;;;9.87;5.90;;;23.10;40.60;;;;;;5081635;28;20650;-67
2021/03/31 15:03:35;;;;;;;7.57;6.50;;;23.10;41.50;;;;;;5085603;28;20729;-67
2021/03/31 15:06:01;;;;;;;6.40;5.30;;;23.10;42.70;;;;;;5086106;28;20750;-68
2021/03/31 15:08:27;;;;;;;7.60;5.70;;;23.10;42.70;;;;;;5088113;28;20634;-68
2021/03/31 15:10:53;;;;;;;5.77;5.17;;;23.10;43.00;;;;;;5079466;28;20641;-68
2021/03/31 15:13:20;;;;;;;10.03;6.07;;;23.00;42.60;;;;;;5083807;28;20631;-67
2021/03/31 15:15:47;;;;;;;6.63;5.97;;;23.00;41.60;;;;;;5079695;28;20718;-67
2021/03/31 15:18:13;;;;;;;7.67;6.17;;;23.00;43.90;;;;;;5088278;28;20643;-68
2021/03/31 15:20:47;;;;;;;7.10;6.33;;;23.00;43.10;;;;;;5087758;28;20666;-68
2021/03/31 15:23:15;;;;;;;9.50;7.57;;;23.10;43.20;;;;;;5083038;28;20630;-68
2021/03/31 15:25:41;;;;;;;7.70;7.00;;;23.00;45.00;;;;;;5086583;28;20629;-68
2021/03/31 15:28:08;;;;;;;8.70;6.80;;;23.00;44.60;;;;;;5078368;28;20734;-68
2021/03/31 15:30:34;;;;;;;7.00;6.30;;;22.90;44.50;;;;;;5082502;28;20654;-66
2021/03/31 15:33:01;;;;;;;6.57;5.83;;;22.80;45.80;;;;;;5087350;28;21345;-66
2021/03/31 15:35:28;;;;;;;11.27;7.50;;;22.80;45.00;;;;;;5085111;28;20645;-68
2021/03/31 15:37:54;;;;;;;8.97;6.67;;;22.90;43.50;;;;;;5084078;28;20623;-66
2021/03/31 15:40:21;;;;;;;8.37;6.67;;;22.90;44.70;;;;;;5094255;28;20677;-69
2021/03/31 15:42:48;;;;;;;10.70;8.80;;;22.80;45.30;;;;;;5076845;28;20631;-68
2021/03/31 15:45:14;;;;;;;9.37;8.47;;;22.70;46.50;;;;;;5076491;28;21167;-67
2021/03/31 15:47:42;;;;;;;9.73;7.80;;;22.70;46.70;;;;;;5083771;28;20682;-68
2021/03/31 15:50:11;;;;;;;7.87;6.87;;;22.60;46.40;;;;;;5087347;28;20631;-69
2021/03/31 15:52:38;;;;;;;9.73;7.93;;;22.60;46.60;;;;;;5080316;28;20634;-68
2021/03/31 15:55:06;;;;;;;7.30;6.50;;;22.50;45.90;;;;;;5092541;28;20672;-68
2021/03/31 15:57:32;;;;;;;7.60;5.90;;;22.50;44.80;;;;;;5085042;28;20646;-69
2021/03/31 15:59:58;;;;;;;11.20;7.60;;;22.40;45.70;;;;;;5084180;28;20634;-70
2021/03/31 16:02:25;;;;;;;8.93;6.60;;;22.40;45.50;;;;;;5081288;28;20717;-69
2021/03/31 16:04:54;;;;;;;8.20;7.40;;;22.30;46.60;;;;;;5083400;28;20615;-71
2021/03/31 16:07:34;;;;;;;8.97;8.07;;;22.20;47.50;;;;;;5079180;28;20684;-69
2021/03/31 16:10:01;;;;;;;9.63;7.67;;;22.30;45.20;;;;;;5079794;28;20637;-71
2021/03/31 16:12:28;;;;;;;9.50;7.63;;;22.30;46.30;;;;;;5082923;28;20630;-70
2021/03/31 16:14:56;;;;;;;9.63;7.80;;;22.30;47.20;;;;;;5077249;28;20634;-71